Time;durP1;ratioP1;P1;durP2;ratioP2;P2;SDS_P1;SDS_P2;PMS_P1;PMS_P2;Temp;Humidity;BMP_temperature;BMP_pressure;BME280_temperature;BME280_humidity;BME280_pressure;Samples;Min_cycle;Max_cycle;Signal;HPM_P1;HPM_P2
2022/09/07 00:02:45;;;;;;;4.93;2.30;;;;;;;-140.66;100.00;55571.53;5039345;28;20029;-74
2022/09/07 00:05:31;;;;;;;2.60;1.98;;;;;;;-140.66;100.00;55571.53;5040085;28;20024;-73
2022/09/07 00:08:19;;;;;;;2.80;2.13;;;;;;;-140.66;100.00;55571.53;5054643;28;20032;-74
2022/09/07 00:11:09;;;;;;;2.65;2.17;;;;;;;-140.66;100.00;55571.53;5057889;28;20031;-73
2022/09/07 00:13:56;;;;;;;4.13;2.40;;;;;;;-140.66;100.00;55571.53;5058360;28;20086;-74
2022/09/07 00:16:41;;;;;;;3.63;2.13;;;;;;;-140.66;100.00;55571.53;5057050;28;20168;-74
2022/09/07 00:19:27;;;;;;;5.43;2.58;;;;;;;-140.66;100.00;55571.53;5043396;28;20029;-73
2022/09/07 00:22:13;;;;;;;3.30;2.30;;;;;;;-140.66;100.00;55571.53;5058015;28;20029;-74
2022/09/07 00:24:59;;;;;;;2.25;1.90;;;;;;;-140.66;100.00;55571.53;5057066;28;20409;-73
2022/09/07 00:27:44;;;;;;;3.30;2.67;;;;;;;-140.66;100.00;55571.53;5056923;28;20033;-73
2022/09/07 00:30:31;;;;;;;2.42;2.15;;;;;;;-140.66;100.00;55571.53;5056997;28;20021;-74
2022/09/07 00:33:16;;;;;;;3.63;2.05;;;;;;;-140.66;100.00;55571.53;5056697;28;20362;-74
2022/09/07 00:36:02;;;;;;;2.88;2.03;;;;;;;-140.66;100.00;55571.53;5056542;28;20024;-74
2022/09/07 00:38:49;;;;;;;4.38;2.47;;;;;;;-140.66;100.00;55571.53;5056746;28;20025;-73
2022/09/07 00:41:35;;;;;;;3.28;2.10;;;;;;;-140.66;100.00;55571.53;5056985;28;20025;-75
2022/09/07 00:44:42;;;;;;;3.65;2.10;;;;;;;-140.66;100.00;55571.53;5056648;28;20035;-74
2022/09/07 00:47:36;;;;;;;2.60;2.10;;;;;;;-140.66;100.00;55571.53;5056399;28;20025;-74
2022/09/07 00:50:31;;;;;;;4.20;2.20;;;;;;;-140.66;100.00;55571.53;5057284;28;20029;-74
2022/09/07 00:53:40;;;;;;;4.40;2.10;;;;;;;-140.66;100.00;55571.53;5042249;28;20151;-74
2022/09/07 00:56:31;;;;;;;3.95;2.17;;;;;;;-140.66;100.00;55571.53;5041359;28;20049;-74
2022/09/07 00:59:22;;;;;;;2.70;2.08;;;;;;;-140.66;100.00;55571.53;5056217;28;20513;-74
2022/09/07 01:02:08;;;;;;;4.93;2.25;;;;;;;-140.66;100.00;55571.53;5056166;28;20029;-74
2022/09/07 01:05:02;;;;;;;3.38;2.00;;;;;;;-140.66;100.00;55571.53;5042415;28;20098;-74
2022/09/07 01:07:49;;;;;;;2.45;2.17;;;;;;;-140.66;100.00;55571.53;5056337;28;20086;-74
2022/09/07 01:10:36;;;;;;;3.55;2.50;;;;;;;-140.66;100.00;55571.53;5056630;28;20029;-74
2022/09/07 01:13:22;;;;;;;5.38;2.35;;;;;;;-140.66;100.00;55571.53;5042097;28;20366;-74
2022/09/07 01:16:35;;;;;;;4.85;2.22;;;;;;;-140.66;100.00;55571.53;5057164;28;20052;-74
2022/09/07 01:19:36;;;;;;;3.38;2.38;;;;;;;-140.66;100.00;55571.53;5056849;28;20022;-74
2022/09/07 01:22:46;;;;;;;4.40;2.60;;;;;;;-140.66;100.00;55571.53;5056804;28;20202;-74
2022/09/07 01:25:58;;;;;;;6.35;2.40;;;;;;;-140.66;100.00;55571.53;5056260;28;20091;-74
2022/09/07 01:28:49;;;;;;;5.28;2.60;;;;;;;-140.66;100.00;55571.53;5056076;28;20032;-75
2022/09/07 01:31:47;;;;;;;2.95;2.50;;;;;;;-140.66;100.00;55571.53;5055854;28;20372;-74
2022/09/07 01:34:33;;;;;;;4.93;2.58;;;;;;;-140.66;100.00;55571.53;5055820;28;20111;-75
2022/09/07 01:37:28;;;;;;;3.60;2.72;;;;;;;-140.66;100.00;55571.53;5042055;28;20084;-74
2022/09/07 01:40:25;;;;;;;5.43;2.53;;;;;;;-140.66;100.00;55571.53;5057132;28;20090;-75
2022/09/07 01:43:31;;;;;;;3.28;2.75;;;;;;;-140.66;100.00;55571.53;5057065;28;20033;-73
2022/09/07 01:46:28;;;;;;;3.63;2.40;;;;;;;-140.66;100.00;55571.53;5055410;28;20541;-74
2022/09/07 01:49:35;;;;;;;3.85;2.50;;;;;;;-140.66;100.00;55571.53;5055772;28;20039;-74
2022/09/07 01:53:07;;;;;;;2.50;2.20;;;;;;;-140.66;100.00;55571.53;5055895;28;20024;-74
2022/09/07 01:55:57;;;;;;;6.32;2.50;;;;;;;-140.66;100.00;55571.53;5022155;28;20049;-74
2022/09/07 01:58:42;;;;;;;4.50;2.75;;;;;;;-140.66;100.00;55571.53;5055320;28;20445;-73
2022/09/07 02:01:46;;;;;;;4.15;2.88;;;;;;;-140.66;100.00;55571.53;5055462;28;20025;-74
2022/09/07 02:04:47;;;;;;;4.53;2.53;;;;;;;-140.66;100.00;55571.53;5055449;28;20025;-73
2022/09/07 02:07:39;;;;;;;7.88;2.70;;;;;;;-140.66;100.00;55571.53;5056209;28;20033;-73
2022/09/07 02:10:32;;;;;;;3.38;2.83;;;;;;;-140.66;100.00;55571.53;5055485;28;20046;-74
2022/09/07 02:13:22;;;;;;;5.63;2.97;;;;;;;-140.66;100.00;55571.53;5055749;28;20024;-74
2022/09/07 02:16:15;;;;;;;6.00;2.78;;;;;;;-140.66;100.00;55571.53;5055031;28;20079;-73
2022/09/07 02:19:09;;;;;;;4.88;2.88;;;;;;;-140.66;100.00;55571.53;5055186;28;20021;-73
2022/09/07 02:22:01;;;;;;;3.50;2.63;;;;;;;-140.66;100.00;55571.53;5055036;28;20025;-74
2022/09/07 02:24:52;;;;;;;6.43;3.05;;;;;;;-140.66;100.00;55571.53;5041888;28;20346;-73
2022/09/07 02:27:45;;;;;;;4.72;3.08;;;;;;;-140.66;100.00;55571.53;5056054;28;20036;-73
2022/09/07 02:30:31;;;;;;;3.75;2.70;;;;;;;-140.66;100.00;55571.53;5054964;28;20053;-74
2022/09/07 02:33:17;;;;;;;5.90;3.00;;;;;;;-140.66;100.00;55571.53;5054993;28;20021;-73
2022/09/07 02:36:04;;;;;;;3.40;3.10;;;;;;;-140.66;100.00;55571.53;5056108;28;20036;-74
2022/09/07 02:38:51;;;;;;;4.93;2.80;;;;;;;-140.66;100.00;55571.53;5040369;28;20132;-74
2022/09/07 02:41:40;;;;;;;6.50;3.30;;;;;;;-140.66;100.00;55571.53;5054351;28;20116;-74
2022/09/07 02:44:33;;;;;;;4.15;3.20;;;;;;;-140.66;100.00;55571.53;5040468;28;20033;-74
2022/09/07 02:47:25;;;;;;;5.90;2.95;;;;;;;-140.66;100.00;55571.53;5041906;28;20036;-74
2022/09/07 02:50:30;;;;;;;4.05;2.90;;;;;;;-140.66;100.00;55571.53;5040334;28;20458;-73
2022/09/07 02:53:33;;;;;;;4.70;3.10;;;;;;;-140.66;100.00;55571.53;5054353;28;20500;-74
2022/09/07 02:56:49;;;;;;;7.35;2.97;;;;;;;-140.66;100.00;55571.53;5040023;28;20048;-74
2022/09/07 02:59:50;;;;;;;9.25;3.10;;;;;;;-140.66;100.00;55571.53;5053961;28;20158;-73
2022/09/07 03:02:55;;;;;;;4.55;3.00;;;;;;;-140.66;100.00;55571.53;5053954;28;20382;-74
2022/09/07 03:05:49;;;;;;;5.22;3.30;;;;;;;-140.66;100.00;55571.53;5039938;28;20059;-74
2022/09/07 03:08:39;;;;;;;5.57;3.65;;;;;;;-140.66;100.00;55571.53;5040282;28;20021;-73
2022/09/07 03:11:28;;;;;;;3.70;2.85;;;;;;;-140.66;100.00;55571.53;5040081;28;20021;-74
2022/09/07 03:14:20;;;;;;;5.47;2.92;;;;;;;-140.66;100.00;55571.53;5039720;28;20021;-75
2022/09/07 03:17:06;;;;;;;4.40;2.90;;;;;;;-140.66;100.00;55571.53;5054357;28;20078;-73
2022/09/07 03:19:52;;;;;;;6.88;3.10;;;;;;;-140.66;100.00;55571.53;5054299;28;20495;-74
2022/09/07 03:22:38;;;;;;;5.85;3.30;;;;;;;-140.66;100.00;55571.53;5053587;28;20046;-73
2022/09/07 03:25:24;;;;;;;5.75;2.70;;;;;;;-140.66;100.00;55571.53;5055070;28;20094;-74
2022/09/07 03:28:10;;;;;;;4.80;2.72;;;;;;;-140.66;100.00;55571.53;5054984;28;20029;-74
2022/09/07 03:30:56;;;;;;;4.07;2.78;;;;;;;-140.66;100.00;55571.53;5054269;28;20044;-75
2022/09/07 03:33:41;;;;;;;4.55;3.03;;;;;;;-140.66;100.00;55571.53;5053993;28;20021;-73
2022/09/07 03:36:31;;;;;;;5.25;2.90;;;;;;;-140.66;100.00;55571.53;5053879;28;20059;-74
2022/09/07 03:39:19;;;;;;;3.88;2.90;;;;;;;-140.66;100.00;55571.53;5053635;28;20439;-74
2022/09/07 03:42:05;;;;;;;4.70;2.75;;;;;;;-140.66;100.00;55571.53;5053894;28;20454;-74
2022/09/07 03:44:51;;;;;;;5.40;2.70;;;;;;;-140.66;100.00;55571.53;5054185;28;20043;-73
2022/09/07 03:47:37;;;;;;;3.92;2.83;;;;;;;-140.66;100.00;55571.53;5053694;28;20159;-74
2022/09/07 03:50:23;;;;;;;4.57;3.15;;;;;;;-140.66;100.00;55571.53;5053361;28;20032;-74
2022/09/07 03:53:08;;;;;;;4.70;2.80;;;;;;;-140.66;100.00;55571.53;5053689;28;20103;-74
2022/09/07 03:55:59;;;;;;;4.30;3.10;;;;;;;-140.66;100.00;55571.53;5053119;28;20517;-74
2022/09/07 03:58:46;;;;;;;7.53;3.95;;;;;;;-140.66;100.00;55571.53;5053781;28;20025;-74
2022/09/07 04:01:32;;;;;;;7.40;3.85;;;;;;;-140.66;100.00;55571.53;5053574;28;20021;-74
2022/09/07 04:04:18;;;;;;;3.90;3.33;;;;;;;-140.66;100.00;55571.53;5039335;28;20166;-72
2022/09/07 04:07:05;;;;;;;5.22;3.67;;;;;;;-140.66;100.00;55571.53;5053417;28;20428;-74
2022/09/07 04:09:51;;;;;;;3.95;3.50;;;;;;;-140.66;100.00;55571.53;5054090;28;20052;-73
2022/09/07 04:12:37;;;;;;;4.70;3.83;;;;;;;-140.66;100.00;55571.53;5054599;28;20032;-74
2022/09/07 04:15:22;;;;;;;5.40;4.00;;;;;;;-140.66;100.00;55571.53;5053020;28;20067;-75
2022/09/07 04:18:08;;;;;;;7.72;4.93;;;;;;;-140.66;100.00;55571.53;5053559;28;20037;-74
2022/09/07 04:20:57;;;;;;;8.40;5.20;;;;;;;-140.66;100.00;55571.53;5053054;28;20047;-73
2022/09/07 04:23:43;;;;;;;8.20;4.93;;;;;;;-140.66;100.00;55571.53;5052979;28;20032;-74
2022/09/07 04:26:31;;;;;;;7.07;4.88;;;;;;;-140.66;100.00;55571.53;5053255;28;20111;-74
2022/09/07 04:29:17;;;;;;;10.13;4.72;;;;;;;-140.66;100.00;55571.53;5053136;28;20059;-73
2022/09/07 04:32:03;;;;;;;15.02;8.23;;;;;;;-140.66;100.00;55571.53;5052857;28;20088;-72
2022/09/07 04:34:50;;;;;;;5.63;4.57;;;;;;;-140.66;100.00;55571.53;5054081;28;20020;-74
2022/09/07 04:37:36;;;;;;;7.60;4.53;;;;;;;-140.66;100.00;55571.53;5052914;28;20457;-74
2022/09/07 04:40:22;;;;;;;11.15;4.85;;;;;;;-140.66;100.00;55571.53;5038923;28;20037;-74
2022/09/07 04:43:08;;;;;;;8.77;4.55;;;;;;;-140.66;100.00;55571.53;5052742;28;20469;-73
2022/09/07 04:45:54;;;;;;;6.75;4.20;;;;;;;-140.66;100.00;55571.53;5052994;28;20057;-73
2022/09/07 04:48:40;;;;;;;5.90;4.38;;;;;;;-140.66;100.00;55571.53;5039200;28;20035;-73
2022/09/07 04:51:28;;;;;;;6.63;4.88;;;;;;;-140.66;100.00;55571.53;5052770;28;20068;-74
2022/09/07 04:54:14;;;;;;;10.98;4.80;;;;;;;-140.66;100.00;55571.53;5054002;28;20108;-73
2022/09/07 04:57:00;;;;;;;8.70;4.35;;;;;;;-140.66;100.00;55571.53;5057366;28;20485;-73
2022/09/07 04:59:47;;;;;;;11.98;4.00;;;;;;;-140.66;100.00;55571.53;5056815;28;20033;-73
2022/09/07 05:02:32;;;;;;;7.55;4.05;;;;;;;-140.66;100.00;55571.53;5056802;28;20029;-74
2022/09/07 05:05:18;;;;;;;6.85;4.10;;;;;;;-140.66;100.00;55571.53;5056490;28;20033;-73
2022/09/07 05:08:04;;;;;;;14.23;4.25;;;;;;;-140.66;100.00;55571.53;5056442;28;20031;-73
2022/09/07 05:10:52;;;;;;;11.57;4.57;;;;;;;-140.66;100.00;55571.53;5056452;28;20032;-74
2022/09/07 05:13:38;;;;;;;5.40;4.13;;;;;;;-140.66;100.00;55571.53;5056278;28;20035;-77
2022/09/07 05:16:25;;;;;;;7.03;4.68;;;;;;;-140.66;100.00;55571.53;5056091;28;20021;-76
2022/09/07 05:19:12;;;;;;;7.57;4.40;;;;;;;-140.66;100.00;55571.53;5056450;28;20307;-75
2022/09/07 05:21:58;;;;;;;8.95;4.60;;;;;;;-140.66;100.00;55571.53;5056014;28;20112;-76
2022/09/07 05:24:45;;;;;;;10.25;5.07;;;;;;;-140.66;100.00;55571.53;5056352;28;20116;-75
2022/09/07 05:27:31;;;;;;;12.00;5.25;;;;;;;-140.66;100.00;55571.53;5056143;28;20029;-76
2022/09/07 05:30:17;;;;;;;13.63;5.30;;;;;;;-140.66;100.00;55571.53;5057337;28;20103;-76
2022/09/07 05:33:04;;;;;;;14.13;5.03;;;;;;;-140.66;100.00;55571.53;5041914;28;20098;-75
2022/09/07 05:35:57;;;;;;;16.13;5.95;;;;;;;-140.66;100.00;55571.53;5056246;28;20111;-76
2022/09/07 05:38:43;;;;;;;12.40;5.75;;;;;;;-140.66;100.00;55571.53;5056118;28;20111;-75
2022/09/07 05:41:28;;;;;;;13.02;5.38;;;;;;;-140.66;100.00;55571.53;5055350;28;20032;-76
2022/09/07 05:44:14;;;;;;;16.95;6.50;;;;;;;-140.66;100.00;55571.53;5055801;28;20032;-76
2022/09/07 05:47:00;;;;;;;14.45;4.97;;;;;;;-140.66;100.00;55571.53;5042149;28;20021;-76
2022/09/07 05:49:46;;;;;;;9.70;5.47;;;;;;;-140.66;100.00;55571.53;5055531;28;20032;-76
2022/09/07 05:52:32;;;;;;;10.43;4.35;;;;;;;-140.66;100.00;55571.53;5041527;28;20044;-75
2022/09/07 05:55:18;;;;;;;9.70;4.10;;;;;;;-140.66;100.00;55571.53;5055264;28;20140;-76
2022/09/07 05:58:04;;;;;;;8.73;3.80;;;;;;;-140.66;100.00;55571.53;5055366;28;20546;-76
2022/09/07 06:00:50;;;;;;;3.97;3.05;;;;;;;-140.66;100.00;55571.53;5055447;28;20033;-75
2022/09/07 06:03:37;;;;;;;6.22;3.13;;;;;;;-140.66;100.00;55571.53;5056180;28;20033;-76
2022/09/07 06:06:23;;;;;;;11.52;3.42;;;;;;;-140.66;100.00;55571.53;5055428;28;20087;-75
2022/09/07 06:09:11;;;;;;;10.40;3.40;;;;;;;-140.66;100.00;55571.53;5055554;28;20104;-76
2022/09/07 06:11:57;;;;;;;4.78;3.13;;;;;;;-140.66;100.00;55571.53;5055194;28;20114;-76
2022/09/07 06:14:42;;;;;;;6.78;3.03;;;;;;;-140.66;100.00;55571.53;5054979;28;20065;-75
2022/09/07 06:17:29;;;;;;;5.82;2.83;;;;;;;-140.66;100.00;55571.53;5055280;28;20064;-76
2022/09/07 06:20:15;;;;;;;6.63;3.40;;;;;;;-140.66;100.00;55571.53;5055310;28;20033;-75
2022/09/07 06:23:01;;;;;;;8.25;2.95;;;;;;;-140.66;100.00;55571.53;5055441;28;20028;-75
2022/09/07 06:25:48;;;;;;;5.85;3.40;;;;;;;-140.66;100.00;55571.53;5054761;28;20032;-76
2022/09/07 06:28:36;;;;;;;5.75;3.40;;;;;;;-140.66;100.00;55571.53;5055320;28;20103;-75
2022/09/07 06:31:23;;;;;;;8.68;3.67;;;;;;;-140.66;100.00;55571.53;5055670;28;20029;-75
2022/09/07 06:34:09;;;;;;;8.90;3.10;;;;;;;-140.66;100.00;55571.53;5055253;28;20033;-76
2022/09/07 06:36:55;;;;;;;10.77;3.58;;;;;;;-140.66;100.00;55571.53;5055185;28;20111;-76
2022/09/07 06:39:41;;;;;;;8.00;3.05;;;;;;;-140.66;100.00;55571.53;5054751;28;20454;-76
2022/09/07 06:42:27;;;;;;;4.80;3.30;;;;;;;-140.66;100.00;55571.53;5055633;28;20029;-76
2022/09/07 06:45:12;;;;;;;10.70;3.75;;;;;;;-140.66;100.00;55571.53;5054642;28;20409;-76
2022/09/07 06:47:58;;;;;;;9.82;3.72;;;;;;;-140.66;100.00;55571.53;5055401;28;20029;-77
2022/09/07 06:50:53;;;;;;;6.65;3.15;;;;;;;-140.66;100.00;55571.53;5054450;28;20036;-76
2022/09/07 06:53:39;;;;;;;7.18;3.70;;;;;;;-140.66;100.00;55571.53;5056257;28;20025;-76
2022/09/07 06:56:26;;;;;;;9.45;3.80;;;;;;;-140.66;100.00;55571.53;5053718;28;20053;-76
2022/09/07 06:59:12;;;;;;;7.30;3.40;;;;;;;-140.66;100.00;55571.53;5040207;28;20025;-76
2022/09/07 07:01:57;;;;;;;7.75;3.67;;;;;;;-140.66;100.00;55571.53;5054262;28;20471;-76
2022/09/07 07:04:45;;;;;;;4.65;3.30;;;;;;;-140.66;100.00;55571.53;5054475;28;20052;-76
2022/09/07 07:07:31;;;;;;;9.40;4.07;;;;;;;-140.66;100.00;55571.53;5054409;28;20186;-75
2022/09/07 07:10:17;;;;;;;6.97;3.15;;;;;;;-140.66;100.00;55571.53;5054090;28;20457;-76
2022/09/07 07:13:02;;;;;;;6.10;3.40;;;;;;;-140.66;100.00;55571.53;5054335;28;20029;-76
2022/09/07 07:15:50;;;;;;;6.28;3.65;;;;;;;-140.66;100.00;55571.53;5053801;28;20401;-76
2022/09/07 07:18:36;;;;;;;6.35;3.47;;;;;;;-140.66;100.00;55571.53;5054723;28;20024;-76
2022/09/07 07:21:22;;;;;;;8.32;3.58;;;;;;;-140.66;100.00;55571.53;5057503;28;20025;-75
2022/09/07 07:24:08;;;;;;;5.13;3.20;;;;;;;-140.66;100.00;55571.53;5058410;28;20039;-76
2022/09/07 07:26:54;;;;;;;9.07;3.42;;;;;;;-140.66;100.00;55571.53;5059852;28;20453;-76
2022/09/07 07:29:39;;;;;;;6.40;3.05;;;;;;;-140.66;100.00;55571.53;5055257;28;20452;-76
2022/09/07 07:32:25;;;;;;;9.45;4.10;;;;;;;-140.66;100.00;55571.53;5054119;28;20021;-76
2022/09/07 07:35:12;;;;;;;8.93;3.70;;;;;;;-140.66;100.00;55571.53;5053752;28;20098;-76
2022/09/07 07:37:58;;;;;;;8.68;3.60;;;;;;;-140.66;100.00;55571.53;5039620;28;20043;-76
2022/09/07 07:40:52;;;;;;;11.48;3.30;;;;;;;-140.66;100.00;55571.53;5053549;28;20098;-75
2022/09/07 07:43:38;;;;;;;6.90;3.78;;;;;;;-140.66;100.00;55571.53;5039398;28;20036;-76
2022/09/07 07:46:25;;;;;;;7.82;3.63;;;;;;;-140.66;100.00;55571.53;5054635;28;20082;-76
2022/09/07 07:49:11;;;;;;;4.68;3.25;;;;;;;-140.66;100.00;55571.53;5053708;28;20035;-75
2022/09/07 07:51:56;;;;;;;4.80;3.10;;;;;;;-140.66;100.00;55571.53;5055336;28;20060;-76
2022/09/07 07:54:42;;;;;;;9.52;3.53;;;;;;;-140.66;100.00;55571.53;5040894;28;20033;-76
2022/09/07 07:57:28;;;;;;;5.65;3.38;;;;;;;-140.66;100.00;55571.53;5054235;28;20146;-77
2022/09/07 08:00:15;;;;;;;9.40;3.45;;;;;;;-140.66;100.00;55571.53;5052913;28;20385;-76
2022/09/07 08:03:00;;;;;;;10.63;3.58;;;;;;;-140.66;100.00;55571.53;5039392;28;20025;-76
2022/09/07 08:05:46;;;;;;;9.80;5.97;;;;;;;-140.66;100.00;55571.53;5062797;28;20029;-76
2022/09/07 08:08:34;;;;;;;9.00;3.75;;;;;;;-140.66;100.00;55571.53;5065460;28;20032;-76
2022/09/07 08:11:20;;;;;;;16.55;3.17;;;;;;;-140.66;100.00;55571.53;5055897;28;20068;-76
2022/09/07 08:14:08;;;;;;;5.25;3.40;;;;;;;-140.66;100.00;55571.53;5053267;28;20036;-76
2022/09/07 08:16:54;;;;;;;8.68;3.67;;;;;;;-140.66;100.00;55571.53;5054254;28;20043;-75
2022/09/07 08:19:40;;;;;;;8.30;3.22;;;;;;;-140.66;100.00;55571.53;5053276;28;20048;-76
2022/09/07 08:22:26;;;;;;;8.10;3.58;;;;;;;-140.66;100.00;55571.53;5053823;28;20466;-77
2022/09/07 08:25:11;;;;;;;6.47;3.80;;;;;;;-140.66;100.00;55571.53;5052957;28;20465;-76
2022/09/07 08:27:57;;;;;;;4.57;3.35;;;;;;;-140.66;100.00;55571.53;5053332;28;20468;-76
2022/09/07 08:30:43;;;;;;;7.85;3.60;;;;;;;-140.66;100.00;55571.53;5056378;28;20090;-77
2022/09/07 08:33:29;;;;;;;5.60;3.17;;;;;;;-140.66;100.00;55571.53;5057902;28;20459;-75
2022/09/07 08:36:18;;;;;;;6.78;3.58;;;;;;;-140.66;100.00;55571.53;5056808;28;20067;-77
2022/09/07 08:39:03;;;;;;;9.15;3.78;;;;;;;-140.66;100.00;55571.53;5056984;28;20385;-76
2022/09/07 08:42:11;;;;;;;7.75;3.47;;;;;;;-140.66;100.00;55571.53;5056714;28;20040;-76
2022/09/07 08:45:05;;;;;;;19.33;10.45;;;;;;;-140.66;100.00;55571.53;5042513;28;20052;-76
2022/09/07 08:47:51;;;;;;;12.65;5.80;;;;;;;-140.66;100.00;55571.53;5058142;28;20029;-77
2022/09/07 08:50:44;;;;;;;4.68;3.67;;;;;;;-140.66;100.00;55571.53;5056645;28;20029;-76
2022/09/07 08:53:30;;;;;;;5.90;3.10;;;;;;;-140.66;100.00;55571.53;5057454;28;20363;-77
2022/09/07 08:56:30;;;;;;;5.95;3.05;;;;;;;-140.66;100.00;55571.53;5056225;28;20384;-76
2022/09/07 08:59:24;;;;;;;4.10;3.33;;;;;;;-140.66;100.00;55571.53;5056601;28;20033;-76
2022/09/07 09:02:13;;;;;;;5.78;3.10;;;;;;;-140.66;100.00;55571.53;5056439;28;20033;-76
2022/09/07 09:04:59;;;;;;;5.22;3.05;;;;;;;-140.66;100.00;55571.53;5056730;28;20174;-77
2022/09/07 09:08:14;;;;;;;4.97;2.95;;;;;;;-140.66;100.00;55571.53;5056532;28;20111;-75
2022/09/07 09:11:04;;;;;;;5.93;2.90;;;;;;;-140.66;100.00;55571.53;5056744;28;20079;-76
2022/09/07 09:13:54;;;;;;;8.30;3.40;;;;;;;-140.66;100.00;55571.53;5056526;28;20056;-76
2022/09/07 09:16:42;;;;;;;6.07;3.30;;;;;;;-140.66;100.00;55571.53;5056492;28;20036;-76
2022/09/07 09:19:45;;;;;;;5.38;2.90;;;;;;;-140.66;100.00;55571.53;5056115;28;20112;-77
2022/09/07 09:22:31;;;;;;;8.25;3.53;;;;;;;-140.66;100.00;55571.53;5056081;28;20082;-76
2022/09/07 09:25:25;;;;;;;3.55;3.10;;;;;;;-140.66;100.00;55571.53;5057089;28;20081;-77
2022/09/07 09:28:11;;;;;;;7.97;3.83;;;;;;;-140.66;100.00;55571.53;5056279;28;20025;-77
2022/09/07 09:30:57;;;;;;;7.55;3.17;;;;;;;-140.66;100.00;55571.53;5055909;28;20032;-77
2022/09/07 09:33:43;;;;;;;4.53;3.20;;;;;;;-140.66;100.00;55571.53;5058560;28;20442;-76
2022/09/07 09:36:33;;;;;;;5.07;3.35;;;;;;;-140.66;100.00;55571.53;5064303;28;20025;-75
2022/09/07 09:39:28;;;;;;;3.95;3.13;;;;;;;-140.66;100.00;55571.53;5065418;28;20037;-74
2022/09/07 09:42:21;;;;;;;6.13;3.15;;;;;;;-140.66;100.00;55571.53;5064933;28;20084;-74
2022/09/07 09:45:18;;;;;;;4.47;3.10;;;;;;;-140.66;100.00;55571.53;5067221;28;20052;-73
2022/09/07 09:48:10;;;;;;;4.78;3.50;;;;;;;-140.66;100.00;55571.53;5066474;28;20083;-74
2022/09/07 09:50:58;;;;;;;8.68;3.28;;;;;;;-140.66;100.00;55571.53;5065821;28;20060;-74
2022/09/07 09:54:01;;;;;;;6.45;3.47;;;;;;;-140.66;100.00;55571.53;5066095;28;20021;-73
2022/09/07 09:56:48;;;;;;;6.85;3.10;;;;;;;-140.66;100.00;55571.53;5063807;28;20108;-75
2022/09/07 09:59:35;;;;;;;7.78;3.80;;;;;;;-140.66;100.00;55571.53;5059343;28;20033;-76
2022/09/07 10:02:27;;;;;;;4.50;3.30;;;;;;;-140.66;100.00;55571.53;5041258;28;20434;-76
2022/09/07 10:05:32;;;;;;;4.78;3.10;;;;;;;-140.66;100.00;55571.53;5056494;28;20059;-76
2022/09/07 10:08:29;;;;;;;3.80;3.05;;;;;;;-140.66;100.00;55571.53;5055600;28;20052;-75
2022/09/07 10:11:15;;;;;;;8.40;3.30;;;;;;;-140.66;100.00;55571.53;5055222;28;20021;-76
2022/09/07 10:14:01;;;;;;;4.45;3.08;;;;;;;-140.66;100.00;55571.53;5055241;28;20333;-75
2022/09/07 10:16:47;;;;;;;7.22;4.22;;;;;;;-140.66;100.00;55571.53;5055250;28;20473;-76
2022/09/07 10:19:36;;;;;;;6.40;3.47;;;;;;;-140.66;100.00;55571.53;5041581;28;20036;-76
2022/09/07 10:22:30;;;;;;;7.32;3.13;;;;;;;-140.66;100.00;55571.53;5054881;28;20108;-76
2022/09/07 10:25:35;;;;;;;8.93;3.55;;;;;;;-140.66;100.00;55571.53;5055322;28;20036;-75
2022/09/07 10:28:23;;;;;;;4.10;2.92;;;;;;;-140.66;100.00;55571.53;5054694;28;20028;-76
2022/09/07 10:31:30;;;;;;;8.43;3.40;;;;;;;-140.66;100.00;55571.53;5054805;28;20025;-76
2022/09/07 10:34:40;;;;;;;5.13;3.25;;;;;;;-140.66;100.00;55571.53;5055211;28;20052;-76
2022/09/07 10:37:48;;;;;;;5.55;3.53;;;;;;;-140.66;100.00;55571.53;5041472;28;20013;-76
2022/09/07 10:40:37;;;;;;;8.93;4.38;;;;;;;-140.66;100.00;55571.53;5042099;28;20028;-76
2022/09/07 10:43:44;;;;;;;5.03;3.78;;;;;;;-140.66;100.00;55571.53;5054255;28;20025;-76
2022/09/07 10:46:44;;;;;;;6.47;4.35;;;;;;;-140.66;100.00;55571.53;5054697;28;20120;-76
2022/09/07 10:49:53;;;;;;;4.68;3.33;;;;;;;-140.66;100.00;55571.53;5055448;28;20036;-76
2022/09/07 10:53:00;;;;;;;4.57;3.33;;;;;;;-140.66;100.00;55571.53;5053563;28;20512;-76
2022/09/07 10:55:55;;;;;;;8.00;3.63;;;;;;;-140.66;100.00;55571.53;5053890;28;20053;-76
2022/09/07 10:59:01;;;;;;;5.90;3.28;;;;;;;-140.66;100.00;55571.53;5040626;28;20056;-76
2022/09/07 11:01:47;;;;;;;8.55;5.30;;;;;;;-140.66;100.00;55571.53;5055149;28;20100;-76
2022/09/07 11:04:54;;;;;;;7.07;3.10;;;;;;;-140.66;100.00;55571.53;5054044;28;20416;-75
2022/09/07 11:08:00;;;;;;;4.93;3.10;;;;;;;-140.66;100.00;55571.53;5054353;28;20029;-75
2022/09/07 11:11:11;;;;;;;7.15;4.70;;;;;;;-140.66;100.00;55571.53;5039987;28;20021;-76
2022/09/07 11:14:06;;;;;;;5.15;3.00;;;;;;;-140.66;100.00;55571.53;5055517;28;20040;-76
2022/09/07 11:17:00;;;;;;;3.78;2.80;;;;;;;-140.66;100.00;55571.53;5054077;28;20033;-76
2022/09/07 11:20:02;;;;;;;4.00;2.72;;;;;;;-140.66;100.00;55571.53;5053909;28;20021;-76
2022/09/07 11:22:53;;;;;;;10.60;2.75;;;;;;;-140.66;100.00;55571.53;5039912;28;20098;-76
2022/09/07 11:26:02;;;;;;;7.78;2.85;;;;;;;-140.66;100.00;55571.53;5039723;28;20460;-76
2022/09/07 11:28:54;;;;;;;5.43;3.13;;;;;;;-140.66;100.00;55571.53;5054786;28;20111;-76
2022/09/07 11:32:27;;;;;;;8.68;3.28;;;;;;;-140.66;100.00;55571.53;5053773;28;20025;-76
2022/09/07 11:35:20;;;;;;;5.55;3.17;;;;;;;-140.66;100.00;55571.53;5053645;28;20029;-77
2022/09/07 11:38:18;;;;;;;4.80;2.80;;;;;;;-140.66;100.00;55571.53;5053992;28;20441;-75
2022/09/07 11:41:17;;;;;;;4.30;2.90;;;;;;;-140.66;100.00;55571.53;5053699;28;20036;-77
2022/09/07 11:44:08;;;;;;;6.43;3.30;;;;;;;-140.66;100.00;55571.53;5039362;28;20037;-76
2022/09/07 11:47:02;;;;;;;4.53;3.50;;;;;;;-140.66;100.00;55571.53;5053811;28;20029;-76
2022/09/07 11:49:52;;;;;;;5.63;2.95;;;;;;;-140.66;100.00;55571.53;5053874;28;20342;-76
2022/09/07 11:52:40;;;;;;;4.40;3.60;;;;;;;-140.66;100.00;55571.53;5053600;28;20456;-76
2022/09/07 11:55:29;;;;;;;3.67;2.85;;;;;;;-140.66;100.00;55571.53;5054096;28;20430;-76
2022/09/07 11:58:55;;;;;;;4.72;2.90;;;;;;;-140.66;100.00;55571.53;5040629;28;20167;-76
2022/09/07 12:01:59;;;;;;;5.47;2.83;;;;;;;-140.66;100.00;55571.53;5033844;28;20033;-76
2022/09/07 12:05:03;;;;;;;5.53;2.78;;;;;;;-140.66;100.00;55571.53;5058937;28;20032;-76
2022/09/07 12:08:01;;;;;;;5.20;2.55;;;;;;;-140.66;100.00;55571.53;5060211;28;20167;-76
2022/09/07 12:10:58;;;;;;;3.80;2.90;;;;;;;-140.66;100.00;55571.53;5061446;28;20036;-75
2022/09/07 12:13:44;;;;;;;3.25;2.50;;;;;;;-140.66;100.00;55571.53;5047552;28;20025;-75
2022/09/07 12:16:55;;;;;;;4.53;3.00;;;;;;;-140.66;100.00;55571.53;5045721;28;20361;-76
2022/09/07 12:19:41;;;;;;;3.42;2.75;;;;;;;-140.66;100.00;55571.53;5060589;28;20418;-76
2022/09/07 12:22:27;;;;;;;3.20;2.60;;;;;;;-140.66;100.00;55571.53;5059871;28;20357;-76
2022/09/07 12:25:17;;;;;;;4.75;2.92;;;;;;;-140.66;100.00;55571.53;5046653;28;20095;-76
2022/09/07 12:28:03;;;;;;;5.20;3.10;;;;;;;-140.66;100.00;55571.53;5050755;28;20366;-76
2022/09/07 12:30:57;;;;;;;4.25;2.70;;;;;;;-140.66;100.00;55571.53;5062528;28;20028;-77
2022/09/07 12:33:42;;;;;;;4.75;2.60;;;;;;;-140.66;100.00;55571.53;5049450;28;20090;-76
2022/09/07 12:36:29;;;;;;;5.68;3.10;;;;;;;-140.66;100.00;55571.53;5061020;28;20052;-77
2022/09/07 12:39:31;;;;;;;4.43;2.97;;;;;;;-140.66;100.00;55571.53;5059845;28;20518;-76
2022/09/07 12:42:23;;;;;;;4.25;2.95;;;;;;;-140.66;100.00;55571.53;5045340;28;20108;-76
2022/09/07 12:45:27;;;;;;;6.70;3.53;;;;;;;-140.66;100.00;55571.53;5060681;28;20037;-76
2022/09/07 12:48:15;;;;;;;4.60;3.10;;;;;;;-140.66;100.00;55571.53;5059622;28;20044;-76
2022/09/07 12:51:38;;;;;;;5.47;3.25;;;;;;;-140.66;100.00;55571.53;5060891;28;20107;-76
2022/09/07 12:54:32;;;;;;;4.25;3.00;;;;;;;-140.66;100.00;55571.53;4960990;29;20026;-76
2022/09/07 12:57:40;;;;;;;4.30;2.72;;;;;;;-140.66;100.00;55571.53;5059812;28;20060;-76
2022/09/07 13:00:46;;;;;;;5.40;3.13;;;;;;;-140.66;100.00;55571.53;5059694;28;20453;-76